Time;durP1;ratioP1;P1;durP2;ratioP2;P2;SDS_P1;SDS_P2;PMS_P1;PMS_P2;Temp;Humidity;BMP_temperature;BMP_pressure;BME280_temperature;BME280_humidity;BME280_pressure;Samples;Min_cycle;Max_cycle;Signal;HPM_P1;HPM_P2
2021/04/26 00:02:00;;;;;;;;;;;;;;;18.53;42.42;100630.44;4925229;29;20390;-81
2021/04/26 00:04:45;;;;;;;;;;;;;;;18.56;42.80;100621.47;4939456;28;19918;-80
2021/04/26 00:07:29;;;;;;;;;;;;;;;18.62;42.66;100617.22;4926319;29;19918;-82
2021/04/26 00:10:14;;;;;;;;;;;;;;;18.42;40.34;100607.44;4933863;29;19915;-81
2021/04/26 00:12:59;;;;;;;;;;;;;;;18.37;40.93;100607.78;4936678;28;19918;-83
2021/04/26 00:15:44;;;;;;;;;;;;;;;18.36;41.49;100600.66;4939892;29;19917;-81
2021/04/26 00:18:31;;;;;;;;;;;;;;;18.37;41.00;100602.25;4916448;29;19918;-81
2021/04/26 00:21:15;;;;;;;;;;;;;;;18.28;40.02;100590.72;4929193;29;19935;-82
2021/04/26 00:24:01;;;;;;;;;;;;;;;18.26;40.04;100590.28;4933965;28;20399;-82
2021/04/26 00:26:45;;;;;;;;;;;;;;;18.24;39.74;100590.66;4935573;29;19914;-79
2021/04/26 00:29:30;;;;;;;;;;;;;;;18.24;39.91;100589.84;4938841;29;19914;-82
2021/04/26 00:32:15;;;;;;;;;;;;;;;18.19;39.87;100579.94;4940962;28;19915;-80
2021/04/26 00:34:59;;;;;;;;;;;;;;;18.22;40.12;100575.69;4932900;29;20394;-80
2021/04/26 00:37:44;;;;;;;;;;;;;;;18.21;40.51;100571.34;4928478;29;20314;-81
2021/04/26 00:40:29;;;;;;;;;;;;;;;18.13;40.40;100566.91;4925610;29;19919;-81
2021/04/26 00:43:14;;;;;;;;;;;;;;;18.12;40.54;100568.06;4931390;29;19919;-81
2021/04/26 00:45:58;;;;;;;;;;;;;;;18.04;40.53;100566.34;4913112;29;20005;-81
2021/04/26 00:48:43;;;;;;;;;;;;;;;17.97;40.32;100556.03;4934115;29;19914;-80
2021/04/26 00:51:28;;;;;;;;;;;;;;;18.05;41.50;100557.72;4923194;29;20383;-80
2021/04/26 00:54:12;;;;;;;;;;;;;;;18.05;41.09;100554.97;4937679;29;19923;-80
2021/04/26 00:56:56;;;;;;;;;;;;;;;18.06;40.89;100558.50;4941070;29;19918;-80
2021/04/26 00:59:42;;;;;;;;;;;;;;;18.05;41.07;100556.94;4936797;29;19915;-80
2021/04/26 01:02:27;;;;;;;;;;;;;;;18.20;42.37;100559.53;4937527;29;19915;-81
2021/04/26 01:05:16;;;;;;;;;;;;;;;18.11;41.04;100560.97;4932896;29;19922;-81
2021/04/26 01:08:02;;;;;;;;;;;;;;;18.03;41.00;100562.03;4939667;28;19914;-81
2021/04/26 01:11:16;;;;;;;;;;;;;;;17.98;41.78;100559.59;4934317;28;19914;-81
2021/04/26 01:14:06;;;;;;;;;;;;;;;17.80;41.33;100556.53;4922015;29;20375;-82
2021/04/26 01:17:12;;;;;;;;;;;;;;;17.56;41.93;100563.16;4941693;28;20326;-82
2021/04/26 01:19:57;;;;;;;;;;;;;;;17.58;41.62;100555.31;4940566;29;19918;-81
2021/04/26 01:22:51;;;;;;;;;;;;;;;17.51;41.59;100549.72;4935115;29;20563;-80
2021/04/26 01:25:38;;;;;;;;;;;;;;;17.60;41.64;100547.53;4922461;29;19919;-80
2021/04/26 01:28:35;;;;;;;;;;;;;;;17.64;42.80;100548.41;4939692;28;19915;-80
2021/04/26 01:31:27;;;;;;;;;;;;;;;17.62;43.06;100556.22;4925851;29;19914;-80
2021/04/26 01:34:12;;;;;;;;;;;;;;;17.64;43.35;100555.84;4931938;29;19914;-81
2021/04/26 01:37:18;;;;;;;;;;;;;;;17.81;42.83;100549.88;4932958;29;19914;-80
2021/04/26 01:40:06;;;;;;;;;;;;;;;17.84;42.86;100560.13;4934180;29;19914;-80
2021/04/26 01:42:54;;;;;;;;;;;;;;;17.90;42.29;100556.69;4915422;29;19919;-80
2021/04/26 01:45:40;;;;;;;;;;;;;;;17.98;41.84;100556.81;4935690;29;19927;-81
2021/04/26 01:48:27;;;;;;;;;;;;;;;17.90;41.57;100544.91;4919075;29;19914;-81
2021/04/26 01:51:14;;;;;;;;;;;;;;;17.87;41.68;100551.94;4938187;28;19915;-80
2021/04/26 01:54:00;;;;;;;;;;;;;;;17.94;41.65;100552.03;4932910;29;19918;-80
2021/04/26 01:56:45;;;;;;;;;;;;;;;17.85;42.14;100550.72;4937071;29;20298;-80
2021/04/26 01:59:36;;;;;;;;;;;;;;;17.87;42.38;100542.91;4937766;29;19915;-80
2021/04/26 02:02:21;;;;;;;;;;;;;;;17.84;42.39;100535.38;4930565;29;20335;-79
2021/04/26 02:05:06;;;;;;;;;;;;;;;17.79;42.89;100535.69;4931261;29;19919;-81
2021/04/26 02:08:08;;;;;;;;;;;;;;;17.84;43.17;100532.59;4921886;29;19915;-81
2021/04/26 02:11:02;;;;;;;;;;;;;;;17.80;43.68;100535.31;4929986;29;19915;-80
2021/04/26 02:13:48;;;;;;;;;;;;;;;17.86;44.13;100533.84;4935599;29;19915;-79
2021/04/26 02:16:33;;;;;;;;;;;;;;;17.85;42.72;100543.25;4939179;28;19915;-81
2021/04/26 02:19:19;;;;;;;;;;;;;;;17.97;43.74;100552.47;4936546;29;20295;-81
2021/04/26 02:22:04;;;;;;;;;;;;;;;17.88;43.18;100548.00;4930106;29;20383;-80
2021/04/26 02:24:53;;;;;;;;;;;;;;;17.93;43.77;100546.91;4925366;29;19921;-79
2021/04/26 02:27:38;;;;;;;;;;;;;;;17.90;44.04;100533.91;4939379;29;19915;-81
2021/04/26 02:30:23;;;;;;;;;;;;;;;17.88;43.98;100530.72;4930487;29;20299;-80
2021/04/26 02:33:13;;;;;;;;;;;;;;;17.80;44.25;100532.56;4947710;28;19914;-81
2021/04/26 02:36:21;;;;;;;;;;;;;;;17.69;43.91;100528.84;4949796;28;20537;-81
2021/04/26 02:39:07;;;;;;;;;;;;;;;17.75;44.39;100527.38;4935616;28;20286;-79
2021/04/26 02:41:51;;;;;;;;;;;;;;;17.77;44.21;100525.06;4944923;28;19915;-80
2021/04/26 02:44:39;;;;;;;;;;;;;;;17.76;44.05;100519.91;4952034;28;19918;-80
2021/04/26 02:47:27;;;;;;;;;;;;;;;17.75;43.90;100513.63;4932167;29;19919;-80
2021/04/26 02:50:25;;;;;;;;;;;;;;;17.69;43.93;100517.84;4943983;28;19914;-81
2021/04/26 02:53:22;;;;;;;;;;;;;;;17.67;43.96;100519.38;4944856;29;20173;-80
2021/04/26 02:56:09;;;;;;;;;;;;;;;17.81;44.43;100520.41;4949030;29;19915;-80
2021/04/26 02:58:57;;;;;;;;;;;;;;;17.80;44.72;100518.00;4947031;29;20314;-80
2021/04/26 03:01:50;;;;;;;;;;;;;;;17.90;44.43;100523.69;4934959;29;19919;-80
2021/04/26 03:04:41;;;;;;;;;;;;;;;17.81;44.59;100509.41;4929140;29;19991;-81
2021/04/26 03:07:26;;;;;;;;;;;;;;;17.84;44.57;100508.66;4931299;28;19915;-79
2021/04/26 03:10:16;;;;;;;;;;;;;;;17.80;44.52;100512.50;4933558;29;19914;-80
2021/04/26 03:13:01;;;;;;;;;;;;;;;17.57;44.46;100509.75;4940953;28;19914;-79
2021/04/26 03:15:47;;;;;;;;;;;;;;;17.48;45.71;100509.19;4933677;29;19915;-80
2021/04/26 03:18:32;;;;;;;;;;;;;;;17.65;45.56;100506.00;4931980;29;20295;-79
2021/04/26 03:21:20;;;;;;;;;;;;;;;17.71;45.77;100504.53;4934236;29;19914;-79
2021/04/26 03:24:09;;;;;;;;;;;;;;;17.65;46.39;100506.00;4932227;29;19926;-80
2021/04/26 03:26:55;;;;;;;;;;;;;;;17.55;46.50;100495.56;4947514;28;19914;-81
2021/04/26 03:29:41;;;;;;;;;;;;;;;17.40;46.41;100493.75;4944776;28;20311;-81
2021/04/26 03:32:27;;;;;;;;;;;;;;;17.22;46.91;100493.41;4948959;28;19915;-81
2021/04/26 03:35:23;;;;;;;;;;;;;;;17.04;47.06;100495.06;4935188;28;19919;-81
2021/04/26 03:38:09;;;;;;;;;;;;;;;16.97;47.12;100492.97;4952349;28;19914;-81
2021/04/26 03:40:57;;;;;;;;;;;;;;;17.02;47.46;100487.16;4956468;28;19914;-80
2021/04/26 03:43:45;;;;;;;;;;;;;;;16.98;46.99;100491.00;4952470;28;19915;-81
2021/04/26 03:46:32;;;;;;;;;;;;;;;17.05;47.17;100482.91;4932875;29;19914;-80
2021/04/26 03:49:35;;;;;;;;;;;;;;;17.08;46.91;100484.91;4946146;29;19914;-79
2021/04/26 03:52:38;;;;;;;;;;;;;;;17.09;47.35;100484.56;4936684;29;19914;-80
2021/04/26 03:55:55;;;;;;;;;;;;;;;17.06;46.33;100479.81;4955711;28;20371;-81
2021/04/26 03:58:40;;;;;;;;;;;;;;;16.94;46.35;100477.22;4952384;28;19918;-81
2021/04/26 04:01:24;;;;;;;;;;;;;;;16.96;46.75;100483.16;4930040;29;20379;-80
2021/04/26 04:04:09;;;;;;;;;;;;;;;16.95;46.26;100486.25;4920948;29;20386;-81
2021/04/26 04:07:20;;;;;;;;;;;;;;;17.02;45.23;100489.91;4944281;29;19923;-80
2021/04/26 04:10:12;;;;;;;;;;;;;;;17.01;44.84;100493.84;4932793;28;19915;-79
2021/04/26 04:13:23;;;;;;;;;;;;;;;17.02;46.05;100500.91;4943037;29;19915;-80
2021/04/26 04:16:08;;;;;;;;;;;;;;;17.04;44.21;100498.59;4934283;29;19914;-80
2021/04/26 04:18:53;;;;;;;;;;;;;;;17.04;44.19;100504.09;4955597;28;19914;-80
2021/04/26 04:21:39;;;;;;;;;;;;;;;16.99;44.37;100504.38;4921679;29;19914;-80
2021/04/26 04:24:26;;;;;;;;;;;;;;;17.06;44.87;100504.53;4943757;28;19918;-81
2021/04/26 04:27:12;;;;;;;;;;;;;;;17.17;43.93;100501.19;4933496;29;19914;-80
2021/04/26 04:29:56;;;;;;;;;;;;;;;17.25;44.52;100505.66;4947895;28;19914;-79
2021/04/26 04:32:59;;;;;;;;;;;;;;;17.20;42.99;100516.94;4947358;29;20335;-80
2021/04/26 04:35:47;;;;;;;;;;;;;;;17.05;42.74;100511.19;4946440;28;20386;-81
2021/04/26 04:38:37;;;;;;;;;;;;;;;17.00;43.78;100516.97;4940478;28;19922;-80
2021/04/26 04:41:41;;;;;;;;;;;;;;;17.04;44.97;100528.81;4944434;28;20386;-80
2021/04/26 04:44:26;;;;;;;;;;;;;;;17.01;43.48;100531.50;4937163;28;19919;-80
2021/04/26 04:47:11;;;;;;;;;;;;;;;16.91;43.85;100527.41;4937251;29;19915;-80
2021/04/26 04:49:56;;;;;;;;;;;;;;;16.86;42.92;100541.41;4951382;28;20291;-81
2021/04/26 04:52:40;;;;;;;;;;;;;;;16.93;43.56;100536.06;4952630;28;19918;-80
2021/04/26 04:55:25;;;;;;;;;;;;;;;16.92;44.30;100539.94;4927924;29;19914;-80
2021/04/26 04:58:11;;;;;;;;;;;;;;;16.94;44.46;100542.34;4939918;29;19914;-81
2021/04/26 05:00:56;;;;;;;;;;;;;;;16.95;44.14;100550.22;4930258;29;20378;-82
2021/04/26 05:04:00;;;;;;;;;;;;;;;17.03;45.13;100551.94;4946823;29;19918;-80
2021/04/26 05:07:08;;;;;;;;;;;;;;;17.16;44.80;100549.84;5000626;22;19925;-82
2021/04/26 05:10:05;;;;;;;;;;;;;;;17.09;44.86;100550.50;4999636;28;20374;-84
2021/04/26 05:13:09;;;;;;;;;;;;;;;17.06;43.79;100556.75;5002058;28;19920;-84
2021/04/26 05:16:05;;;;;;;;;;;;;;;16.92;44.27;100561.13;4996829;28;19913;-82
2021/04/26 05:18:50;;;;;;;;;;;;;;;16.96;44.72;100553.78;5004872;28;19917;-81
2021/04/26 05:21:36;;;;;;;;;;;;;;;16.89;45.24;100557.16;5000456;28;19921;-81
2021/04/26 05:24:21;;;;;;;;;;;;;;;16.92;46.18;100574.84;4991476;28;19917;-83
2021/04/26 05:27:06;;;;;;;;;;;;;;;16.99;45.88;100575.03;4983394;28;19913;-84
2021/04/26 05:29:51;;;;;;;;;;;;;;;16.97;44.80;100569.88;4997440;28;20374;-83
2021/04/26 05:32:38;;;;;;;;;;;;;;;16.97;45.00;100569.06;5005435;28;19913;-83
2021/04/26 05:35:31;;;;;;;;;;;;;;;16.90;45.70;100575.25;4982274;28;20381;-81
2021/04/26 05:38:17;;;;;;;;;;;;;;;16.95;45.53;100574.94;5017243;28;19913;-81
2021/04/26 05:41:02;;;;;;;;;;;;;;;17.04;45.87;100578.28;4993799;28;19917;-81
2021/04/26 05:43:47;;;;;;;;;;;;;;;17.01;44.79;100570.75;5010991;28;19913;-80
2021/04/26 05:46:32;;;;;;;;;;;;;;;16.95;44.33;100571.41;4984867;28;19918;-80
2021/04/26 05:49:16;;;;;;;;;;;;;;;16.90;45.86;100577.19;4996690;28;19913;-80
2021/04/26 05:52:01;;;;;;;;;;;;;;;16.82;45.73;100572.69;4996280;28;19913;-80
2021/04/26 05:54:45;;;;;;;;;;;;;;;16.83;45.38;100563.31;4999280;28;19917;-80
2021/04/26 05:57:30;;;;;;;;;;;;;;;16.95;46.83;100566.72;4996389;28;19913;-80
2021/04/26 06:00:14;;;;;;;;;;;;;;;16.92;45.37;100566.63;4994564;28;20377;-80
2021/04/26 06:03:00;;;;;;;;;;;;;;;16.84;46.17;100560.19;4998517;28;19913;-80
2021/04/26 06:05:45;;;;;;;;;;;;;;;17.12;45.86;100572.94;4997108;28;19918;-80
2021/04/26 06:08:30;;;;;;;;;;;;;;;17.19;44.74;100571.09;5002698;28;19913;-76
2021/04/26 06:11:14;;;;;;;;;;;;;;;17.28;44.72;100568.13;5008014;28;19925;-77
2021/04/26 06:13:59;;;;;;;;;;;;;;;17.20;44.68;100564.47;4991766;28;19913;-77
2021/04/26 06:16:43;;;;;;;;;;;;;;;17.28;46.21;100568.91;4987854;28;19917;-77
2021/04/26 06:19:28;;;;;;;;;;;;;;;17.24;45.90;100567.25;5006051;28;19913;-77
2021/04/26 06:22:12;;;;;;;;;;;;;;;17.06;45.06;100588.91;4999583;28;19913;-76
2021/04/26 06:24:57;;;;;;;;;;;;;;;17.21;45.14;100588.03;5004108;28;19926;-77
2021/04/26 06:27:42;;;;;;;;;;;;;;;17.25;45.33;100585.34;4988181;28;19913;-76
2021/04/26 06:30:27;;;;;;;;;;;;;;;17.19;44.55;100578.56;5006208;28;19913;-76
2021/04/26 06:33:17;;;;;;;;;;;;;;;16.98;44.51;100584.41;4988839;28;19914;-77
2021/04/26 06:36:02;;;;;;;;;;;;;;;17.14;45.86;100589.84;4990342;28;20309;-76
2021/04/26 06:38:47;;;;;;;;;;;;;;;17.22;44.45;100577.84;5000333;28;20282;-76
2021/04/26 06:41:31;;;;;;;;;;;;;;;17.08;44.52;100570.88;4985381;28;20331;-76
2021/04/26 06:44:16;;;;;;;;;;;;;;;16.98;45.11;100578.91;4991029;28;20378;-76
2021/04/26 06:47:00;;;;;;;;;;;;;;;16.90;45.45;100583.47;5008303;28;19917;-76
2021/04/26 06:49:44;;;;;;;;;;;;;;;16.85;45.48;100577.47;5004837;28;19913;-76
2021/04/26 06:52:29;;;;;;;;;;;;;;;17.01;45.13;100570.75;5003728;28;19917;-76
2021/04/26 06:55:13;;;;;;;;;;;;;;;17.04;44.67;100564.53;4990878;28;19918;-76
2021/04/26 06:57:58;;;;;;;;;;;;;;;16.84;45.01;100562.16;5002976;28;19913;-76
2021/04/26 07:00:43;;;;;;;;;;;;;;;17.17;45.09;100561.66;5003485;28;19913;-76
2021/04/26 07:03:28;;;;;;;;;;;;;;;17.09;44.79;100560.69;5006672;28;19913;-76
2021/04/26 07:06:12;;;;;;;;;;;;;;;17.08;44.92;100559.09;4990188;28;19918;-77
2021/04/26 07:08:57;;;;;;;;;;;;;;;16.99;44.69;100573.06;5003429;28;19914;-76
2021/04/26 07:11:42;;;;;;;;;;;;;;;17.08;45.30;100570.09;4993265;28;19990;-76
2021/04/26 07:14:27;;;;;;;;;;;;;;;16.99;44.38;100570.31;5005099;28;19913;-77
2021/04/26 07:17:12;;;;;;;;;;;;;;;17.33;44.45;100567.81;4987822;28;19913;-77
2021/04/26 07:19:56;;;;;;;;;;;;;;;17.52;44.09;100559.56;5007293;28;19914;-77
2021/04/26 07:22:42;;;;;;;;;;;;;;;17.50;43.18;100565.41;4991043;28;19913;-77
2021/04/26 07:25:26;;;;;;;;;;;;;;;17.55;42.59;100561.56;4999090;28;19918;-77
2021/04/26 07:28:11;;;;;;;;;;;;;;;17.62;42.61;100569.97;5000504;28;19913;-77
2021/04/26 07:30:56;;;;;;;;;;;;;;;17.39;41.59;100556.19;5005755;28;20289;-79
2021/04/26 07:33:41;;;;;;;;;;;;;;;17.14;43.59;100559.59;4996116;28;19914;-78
2021/04/26 07:36:26;;;;;;;;;;;;;;;17.45;41.61;100560.22;4994919;28;20301;-78
2021/04/26 07:39:11;;;;;;;;;;;;;;;17.51;41.44;100561.50;4990008;28;19914;-77
2021/04/26 07:41:56;;;;;;;;;;;;;;;17.50;42.90;100565.41;4987124;28;19922;-77
2021/04/26 07:44:41;;;;;;;;;;;;;;;17.42;41.88;100562.91;4999084;28;19917;-77
2021/04/26 07:47:26;;;;;;;;;;;;;;;17.44;42.24;100558.63;4999981;28;20381;-78
2021/04/26 07:50:11;;;;;;;;;;;;;;;17.61;42.39;100559.34;4990111;28;19913;-78
2021/04/26 07:52:56;;;;;;;;;;;;;;;17.66;41.16;100548.84;5001412;28;19918;-78
2021/04/26 07:55:40;;;;;;;;;;;;;;;17.68;42.11;100559.44;4992127;28;19913;-77
2021/04/26 07:58:25;;;;;;;;;;;;;;;17.79;41.24;100566.72;5002839;28;19914;-77
2021/04/26 08:01:10;;;;;;;;;;;;;;;17.66;41.15;100559.84;4991714;28;19914;-78
2021/04/26 08:03:54;;;;;;;;;;;;;;;17.67;41.40;100572.44;4993323;28;19914;-78
2021/04/26 08:06:39;;;;;;;;;;;;;;;17.35;40.82;100576.50;5008338;28;19918;-78
2021/04/26 08:09:24;;;;;;;;;;;;;;;17.44;41.67;100582.56;5008398;28;19918;-78
2021/04/26 08:12:08;;;;;;;;;;;;;;;17.68;41.19;100575.94;4992850;28;19914;-78
2021/04/26 08:14:53;;;;;;;;;;;;;;;17.39;41.17;100577.38;4993319;28;19921;-78
2021/04/26 08:17:38;;;;;;;;;;;;;;;17.49;40.29;100582.25;5007882;28;19917;-78
2021/04/26 08:20:23;;;;;;;;;;;;;;;17.52;41.61;100585.06;4994514;28;19914;-78
2021/04/26 08:23:09;;;;;;;;;;;;;;;17.65;42.12;100576.69;4992556;28;19913;-78
2021/04/26 08:25:53;;;;;;;;;;;;;;;17.55;40.22;100578.06;5005236;28;20317;-78
2021/04/26 08:28:38;;;;;;;;;;;;;;;17.65;42.40;100577.50;5011003;28;20365;-79
2021/04/26 08:31:22;;;;;;;;;;;;;;;17.54;40.06;100574.53;4993997;28;19913;-78
2021/04/26 08:34:07;;;;;;;;;;;;;;;17.56;39.82;100578.88;4994449;28;20411;-78
2021/04/26 08:36:52;;;;;;;;;;;;;;;17.61;41.43;100582.13;5009252;28;19913;-78
2021/04/26 08:39:37;;;;;;;;;;;;;;;17.59;40.28;100581.69;4993214;28;19914;-78
2021/04/26 08:42:22;;;;;;;;;;;;;;;17.49;40.04;100582.25;4993848;28;20301;-78
2021/04/26 08:45:07;;;;;;;;;;;;;;;17.42;40.11;100580.19;5006043;28;20380;-78
2021/04/26 08:47:52;;;;;;;;;;;;;;;17.38;39.78;100582.06;5005186;28;20289;-79
2021/04/26 08:50:36;;;;;;;;;;;;;;;17.33;40.03;100570.56;4991896;28;19914;-78
2021/04/26 08:53:21;;;;;;;;;;;;;;;17.35;39.37;100576.50;4990174;28;19913;-78
2021/04/26 08:56:07;;;;;;;;;;;;;;;17.44;41.06;100577.06;4999232;28;20301;-77
2021/04/26 08:58:51;;;;;;;;;;;;;;;17.49;40.23;100576.78;5008527;28;19913;-78
2021/04/26 09:01:36;;;;;;;;;;;;;;;17.26;39.60;100575.94;5006179;28;19914;-78
2021/04/26 09:04:20;;;;;;;;;;;;;;;17.21;39.71;100573.50;5007747;28;19921;-78
2021/04/26 09:07:09;;;;;;;;;;;;;;;17.40;41.66;100576.22;4979351;28;19917;-78
2021/04/26 09:09:54;;;;;;;;;;;;;;;17.43;40.04;100576.28;4990493;28;19917;-77
2021/04/26 09:12:38;;;;;;;;;;;;;;;17.53;40.08;100574.88;5010892;28;19995;-78
2021/04/26 09:15:22;;;;;;;;;;;;;;;17.43;42.17;100572.72;5008821;28;19914;-78
2021/04/26 09:18:07;;;;;;;;;;;;;;;17.59;40.92;100569.88;5005146;28;20296;-78
2021/04/26 09:21:13;;;;;;;;;;;;;;;17.64;40.32;100575.91;5007627;28;19913;-78
2021/04/26 09:24:12;;;;;;;;;;;;;;;17.38;41.30;100573.03;5004793;28;19921;-79
2021/04/26 09:27:11;;;;;;;;;;;;;;;17.38;38.83;100570.28;4990477;28;19926;-78
2021/04/26 09:29:55;;;;;;;;;;;;;;;17.45;40.67;100584.16;4993052;28;19913;-77
2021/04/26 09:32:40;;;;;;;;;;;;;;;17.53;40.22;100577.63;5003639;28;19914;-79
2021/04/26 09:35:27;;;;;;;;;;;;;;;17.60;39.77;100564.03;5001352;28;20301;-78
2021/04/26 09:38:28;;;;;;;;;;;;;;;17.71;41.04;100573.28;5003905;28;19913;-78
2021/04/26 09:41:16;;;;;;;;;;;;;;;17.65;41.40;100565.69;5003949;28;20289;-78
2021/04/26 09:44:00;;;;;;;;;;;;;;;17.70;41.78;100560.69;5008463;28;19914;-78
2021/04/26 09:46:45;;;;;;;;;;;;;;;17.63;40.19;100560.56;5003469;28;19918;-78
2021/04/26 09:49:29;;;;;;;;;;;;;;;17.59;40.89;100562.44;5002156;28;20297;-77
2021/04/26 09:52:15;;;;;;;;;;;;;;;17.47;41.75;100554.38;5009086;28;19922;-78
2021/04/26 09:54:59;;;;;;;;;;;;;;;17.54;41.48;100554.47;4993719;28;19914;-84
2021/04/26 09:57:44;;;;;;;;;;;;;;;17.49;40.31;100558.31;4990215;28;19918;-84
2021/04/26 10:00:29;;;;;;;;;;;;;;;17.29;41.39;100561.47;4996087;28;19913;-84
2021/04/26 10:03:14;;;;;;;;;;;;;;;17.50;41.29;100561.88;4994908;28;20421;-83
2021/04/26 10:05:59;;;;;;;;;;;;;;;17.47;40.82;100576.34;4993081;28;19917;-83
2021/04/26 10:08:44;;;;;;;;;;;;;;;17.51;40.42;100574.47;4998446;28;19917;-85
2021/04/26 10:11:31;;;;;;;;;;;;;;;17.53;40.74;100570.16;4994952;28;19914;-84
2021/04/26 10:14:18;;;;;;;;;;;;;;;17.50;40.07;100578.38;5002687;28;19917;-84
2021/04/26 10:17:05;;;;;;;;;;;;;;;17.57;40.83;100581.25;4989856;28;19914;-84
2021/04/26 10:19:51;;;;;;;;;;;;;;;17.38;40.58;100586.75;4986666;28;19922;-84
2021/04/26 10:22:37;;;;;;;;;;;;;;;17.20;40.88;100588.38;4984670;28;19913;-83
2021/04/26 10:25:36;;;;;;;;;;;;;;;17.24;41.79;100586.50;4994840;28;19917;-83
2021/04/26 10:28:27;;;;;;;;;;;;;;;16.95;41.46;100587.88;4989170;28;19913;-83
2021/04/26 10:31:17;;;;;;;;;;;;;;;16.97;40.84;100597.34;4988230;28;20297;-83
2021/04/26 10:34:01;;;;;;;;;;;;;;;16.90;41.69;100608.19;4996160;28;19913;-83
2021/04/26 10:36:53;;;;;;;;;;;;;;;16.80;41.67;100613.47;4992757;28;20287;-83
2021/04/26 10:39:38;;;;;;;;;;;;;;;16.62;42.86;100616.59;4997292;28;19914;-83
2021/04/26 10:42:32;;;;;;;;;;;;;;;16.70;43.04;100622.25;4994520;28;19913;-83
2021/04/26 10:45:22;;;;;;;;;;;;;;;16.54;44.44;100619.53;4992318;28;19966;-84
2021/04/26 10:48:10;;;;;;;;;;;;;;;16.55;45.17;100615.63;4997575;28;19918;-82
2021/04/26 10:50:54;;;;;;;;;;;;;;;16.51;45.98;100617.47;4987350;28;19913;-82
2021/04/26 10:53:46;;;;;;;;;;;;;;;16.56;46.68;100617.19;4992447;28;20293;-82
2021/04/26 10:56:32;;;;;;;;;;;;;;;16.58;47.01;100617.66;4990106;28;19921;-82
2021/04/26 10:59:17;;;;;;;;;;;;;;;16.46;47.14;100626.78;5009167;28;19925;-81
2021/04/26 11:02:02;;;;;;;;;;;;;;;16.52;47.34;100619.88;5002953;28;19921;-81
2021/04/26 11:05:05;;;;;;;;;;;;;;;16.48;47.59;100627.22;4987999;28;20415;-82
2021/04/26 11:08:08;;;;;;;;;;;;;;;16.46;48.26;100623.25;4985055;28;19918;-82
2021/04/26 11:10:56;;;;;;;;;;;;;;;16.54;47.54;100617.56;4994833;28;19914;-82
2021/04/26 11:13:42;;;;;;;;;;;;;;;16.58;47.38;100601.19;5007412;23;20317;-80
2021/04/26 11:16:30;;;;;;;;;;;;;;;16.67;47.04;100610.03;4996982;28;19918;-79
2021/04/26 11:19:14;;;;;;;;;;;;;;;16.80;47.15;100597.78;5003021;28;19917;-79
2021/04/26 11:22:00;;;;;;;;;;;;;;;16.89;46.51;100595.63;5005512;28;20301;-80
2021/04/26 11:24:48;;;;;;;;;;;;;;;16.94;46.09;100603.56;4991997;28;19914;-81
2021/04/26 11:27:33;;;;;;;;;;;;;;;16.83;46.31;100602.53;4993103;28;19917;-80
2021/04/26 11:30:19;;;;;;;;;;;;;;;16.90;46.25;100597.22;4994434;28;19913;-81
2021/04/26 11:33:03;;;;;;;;;;;;;;;16.83;45.55;100602.53;5008712;28;19917;-80
2021/04/26 11:36:08;;;;;;;;;;;;;;;16.79;46.58;100609.13;4996404;28;19913;-77
2021/04/26 11:39:00;;;;;;;;;;;;;;;16.79;46.11;100598.94;4995211;28;20296;-78
2021/04/26 11:41:46;;;;;;;;;;;;;;;16.65;45.17;100601.38;5008551;28;19913;-79
2021/04/26 11:44:32;;;;;;;;;;;;;;;16.61;46.05;100605.97;5005576;28;19922;-78
2021/04/26 11:47:18;;;;;;;;;;;;;;;16.60;46.08;100601.66;5002671;28;19926;-79
2021/04/26 11:50:04;;;;;;;;;;;;;;;16.40;45.51;100598.03;4990843;28;19913;-79
2021/04/26 11:52:49;;;;;;;;;;;;;;;16.25;45.70;100598.88;4993987;28;20389;-78
2021/04/26 11:55:33;;;;;;;;;;;;;;;16.26;45.42;100590.25;4993763;28;20393;-79
2021/04/26 11:58:25;;;;;;;;;;;;;;;16.30;45.99;100600.53;4992813;28;19913;-79
2021/04/26 12:01:11;;;;;;;;;;;;;;;16.35;46.46;100597.53;4999096;28;19913;-78
2021/04/26 12:03:59;;;;;;;;;;;;;;;16.35;45.84;100592.03;4993968;28;20385;-79
2021/04/26 12:06:43;;;;;;;;;;;;;;;16.20;44.36;100599.91;4990419;28;19917;-77
2021/04/26 12:09:28;;;;;;;;;;;;;;;16.26;45.55;100603.97;5008853;28;19914;-77
2021/04/26 12:12:19;;;;;;;;;;;;;;;16.33;45.08;100594.31;4994095;28;19913;-78
2021/04/26 12:15:04;;;;;;;;;;;;;;;16.24;45.55;100600.00;5002858;28;19914;-79
2021/04/26 12:17:51;;;;;;;;;;;;;;;16.36;45.65;100601.84;5010419;28;19914;-78
2021/04/26 12:20:40;;;;;;;;;;;;;;;16.25;45.56;100594.16;5006184;28;19913;-79
2021/04/26 12:23:25;;;;;;;;;;;;;;;16.21;45.34;100596.00;4991670;28;19913;-79
2021/04/26 12:26:09;;;;;;;;;;;;;;;16.33;45.46;100594.31;4994883;28;19918;-80
2021/04/26 12:28:54;;;;;;;;;;;;;;;16.36;45.99;100590.84;5007157;28;19914;-77
2021/04/26 12:31:40;;;;;;;;;;;;;;;16.43;45.11;100586.34;4987995;28;19914;-77
2021/04/26 12:34:24;;;;;;;;;;;;;;;16.44;44.65;100578.91;4990316;28;20312;-77
2021/04/26 12:37:09;;;;;;;;;;;;;;;16.35;44.84;100586.53;5006819;28;20301;-82
2021/04/26 12:40:09;;;;;;;;;;;;;;;16.51;45.84;100579.03;5007618;28;19914;-80
2021/04/26 12:42:57;;;;;;;;;;;;;;;16.78;44.76;100577.31;4995584;28;19914;-80
2021/04/26 12:45:42;;;;;;;;;;;;;;;16.91;44.47;100571.34;5005420;28;19922;-82
2021/04/26 12:48:31;;;;;;;;;;;;;;;16.98;43.85;100560.47;5004387;28;20293;-82
2021/04/26 12:51:31;;;;;;;;;;;;;;;17.08;43.63;100559.09;4995580;28;19922;-80
2021/04/26 12:54:16;;;;;;;;;;;;;;;17.15;43.57;100552.97;4991971;28;20378;-79
2021/04/26 12:57:01;;;;;;;;;;;;;;;17.15;43.53;100551.00;5012470;28;19917;-80
2021/04/26 12:59:47;;;;;;;;;;;;;;;17.21;43.29;100541.31;4995390;28;19913;-78
2021/04/26 13:02:32;;;;;;;;;;;;;;;17.11;42.82;100541.91;4992868;28;19914;-80
2021/04/26 13:05:16;;;;;;;;;;;;;;;16.97;42.41;100534.16;5010285;28;20389;-77
2021/04/26 13:08:01;;;;;;;;;;;;;;;16.91;42.63;100524.66;5011179;28;19918;-77
2021/04/26 13:10:45;;;;;;;;;;;;;;;16.89;42.59;100524.22;4991624;28;19914;-81
2021/04/26 13:13:30;;;;;;;;;;;;;;;16.87;42.20;100515.53;5005324;28;19913;-79
2021/04/26 13:16:15;;;;;;;;;;;;;;;16.89;43.32;100515.16;4997679;28;19913;-78
2021/04/26 13:19:02;;;;;;;;;;;;;;;16.92;43.60;100507.00;5008878;28;19913;-77
2021/04/26 13:21:47;;;;;;;;;;;;;;;16.92;42.54;100509.72;5003001;28;19914;-79
2021/04/26 13:24:34;;;;;;;;;;;;;;;16.83;41.44;100500.94;4990639;28;19918;-77
2021/04/26 13:27:19;;;;;;;;;;;;;;;16.50;42.97;100495.94;4993797;28;20197;-77
2021/04/26 13:30:03;;;;;;;;;;;;;;;16.49;42.49;100493.53;4991783;28;19917;-78
2021/04/26 13:32:48;;;;;;;;;;;;;;;16.64;42.43;100498.19;4994871;28;19913;-79
2021/04/26 13:35:33;;;;;;;;;;;;;;;16.57;44.15;100484.28;4993707;28;19913;-80
2021/04/26 13:38:18;;;;;;;;;;;;;;;16.53;42.00;100483.41;5005122;28;19913;-77
2021/04/26 13:41:03;;;;;;;;;;;;;;;16.41;43.14;100486.28;4993599;28;19914;-80
2021/04/26 13:43:48;;;;;;;;;;;;;;;16.49;43.56;100477.06;4989136;28;19913;-80
2021/04/26 13:46:32;;;;;;;;;;;;;;;16.65;42.58;100478.63;4989130;28;20370;-81
2021/04/26 13:49:17;;;;;;;;;;;;;;;16.51;41.93;100477.47;4993662;28;19914;-79
2021/04/26 13:52:02;;;;;;;;;;;;;;;16.56;42.90;100471.69;5003554;28;20309;-80
2021/04/26 13:54:47;;;;;;;;;;;;;;;16.42;42.34;100476.91;4988228;28;19917;-80
2021/04/26 13:57:32;;;;;;;;;;;;;;;16.51;43.09;100472.78;4991669;28;19918;-81
2021/04/26 14:00:17;;;;;;;;;;;;;;;16.46;42.38;100472.28;4994379;28;19914;-81
2021/04/26 14:03:03;;;;;;;;;;;;;;;16.53;42.78;100473.22;4994244;28;20305;-80
2021/04/26 14:05:48;;;;;;;;;;;;;;;16.73;42.41;100470.50;4996947;28;19918;-81
2021/04/26 14:08:33;;;;;;;;;;;;;;;16.78;42.20;100468.25;4992411;28;19913;-82
2021/04/26 14:11:17;;;;;;;;;;;;;;;16.82;43.04;100462.84;4991302;28;19913;-83
2021/04/26 14:14:01;;;;;;;;;;;;;;;16.73;41.53;100454.81;4988967;28;19918;-81
2021/04/26 14:16:46;;;;;;;;;;;;;;;16.72;41.65;100447.75;4994422;28;19913;-78
2021/04/26 14:19:30;;;;;;;;;;;;;;;16.57;41.97;100443.91;4983897;28;20300;-80